Time;durP1;ratioP1;P1;durP2;ratioP2;P2;SDS_P1;SDS_P2;PMS_P1;PMS_P2;Temp;Humidity;BMP_temperature;BMP_pressure;BME280_temperature;BME280_humidity;BME280_pressure;Samples;Min_cycle;Max_cycle;Signal;HPM_P1;HPM_P2
2023/06/09 00:00:05;;;;;;;2.30;1.60;;;25.90;46.70;;;;;;5032924;28;20037;-67
2023/06/09 00:02:33;;;;;;;2.40;1.70;;;25.90;46.70;;;;;;5034726;28;20334;-67
2023/06/09 00:04:59;;;;;;;1.90;1.60;;;25.90;46.70;;;;;;5031931;28;20128;-67
2023/06/09 00:07:27;;;;;;;1.90;1.40;;;25.90;46.70;;;;;;5035107;28;20112;-67
2023/06/09 00:09:52;;;;;;;1.90;1.52;;;25.90;46.70;;;;;;5037204;28;20037;-67
2023/06/09 00:12:18;;;;;;;1.73;1.42;;;25.80;46.60;;;;;;5036223;28;20183;-67
2023/06/09 00:14:44;;;;;;;2.30;1.60;;;25.80;46.60;;;;;;5032134;28;20194;-67
2023/06/09 00:17:09;;;;;;;2.25;1.60;;;25.80;46.60;;;;;;5036266;28;20029;-67
2023/06/09 00:19:36;;;;;;;3.05;1.67;;;25.80;46.60;;;;;;5033863;28;20036;-67
2023/06/09 00:22:02;;;;;;;2.20;1.60;;;25.80;46.70;;;;;;5033335;28;20485;-67
2023/06/09 00:24:28;;;;;;;2.30;1.60;;;25.80;46.60;;;;;;5033175;28;20029;-67
2023/06/09 00:26:54;;;;;;;2.28;1.70;;;25.80;46.60;;;;;;5016354;28;20064;-67
2023/06/09 00:29:24;;;;;;;1.95;1.50;;;25.80;46.60;;;;;;5029680;28;20079;-67
2023/06/09 00:31:50;;;;;;;2.70;1.77;;;25.80;46.60;;;;;;5034001;28;20021;-67
2023/06/09 00:34:15;;;;;;;2.15;1.52;;;25.80;46.70;;;;;;5034987;28;20036;-67
2023/06/09 00:36:41;;;;;;;2.10;1.60;;;25.80;46.70;;;;;;5019565;28;20025;-67
2023/06/09 00:39:08;;;;;;;1.95;1.55;;;25.80;46.70;;;;;;5030184;28;20025;-67
2023/06/09 00:41:38;;;;;;;1.73;1.40;;;25.80;46.70;;;;;;5036339;28;20025;-67
2023/06/09 00:44:04;;;;;;;2.40;1.70;;;25.80;46.70;;;;;;5037022;28;20412;-67
2023/06/09 00:46:30;;;;;;;1.85;1.48;;;25.80;46.70;;;;;;5034732;28;20087;-67
2023/06/09 00:48:56;;;;;;;1.85;1.50;;;25.70;46.60;;;;;;5022956;28;20566;-67
2023/06/09 00:51:21;;;;;;;2.88;1.40;;;25.80;46.70;;;;;;5038786;28;20700;-67
2023/06/09 00:53:47;;;;;;;2.20;1.50;;;25.70;46.60;;;;;;5037818;28;20029;-67
2023/06/09 00:56:13;;;;;;;2.00;1.60;;;25.70;46.70;;;;;;5034876;28;20040;-67
2023/06/09 00:58:39;;;;;;;1.77;1.40;;;25.70;46.60;;;;;;5034854;28;20750;-67
2023/06/09 01:01:05;;;;;;;2.03;1.50;;;25.70;46.70;;;;;;5025009;28;20064;-67
2023/06/09 01:03:32;;;;;;;1.70;1.50;;;25.70;46.70;;;;;;5037098;28;20100;-67
2023/06/09 01:06:32;;;;;;;2.50;1.50;;;25.70;46.70;;;;;;5035010;28;20025;-67
2023/06/09 01:09:02;;;;;;;1.88;1.50;;;25.70;46.70;;;;;;4936444;28;20794;-67
2023/06/09 01:11:46;;;;;;;1.65;1.40;;;25.70;46.70;;;;;;5020618;28;20025;-67
2023/06/09 01:14:20;;;;;;;2.45;1.65;;;25.70;46.70;;;;;;5019511;28;20468;-67
2023/06/09 01:17:07;;;;;;;2.22;1.60;;;25.60;46.70;;;;;;5022414;28;20393;-67
2023/06/09 01:19:43;;;;;;;1.58;1.33;;;25.60;46.70;;;;;;5036490;28;20037;-67
2023/06/09 01:22:32;;;;;;;2.15;1.60;;;25.70;46.70;;;;;;5035875;28;20033;-67
2023/06/09 01:25:26;;;;;;;1.67;1.30;;;25.60;46.70;;;;;;5019383;28;20033;-67
2023/06/09 01:27:52;;;;;;;2.25;1.65;;;25.60;46.70;;;;;;5038317;28;20437;-67
2023/06/09 01:30:21;;;;;;;1.77;1.40;;;25.60;46.70;;;;;;5035767;28;20070;-67
2023/06/09 01:32:48;;;;;;;2.47;1.80;;;25.60;46.70;;;;;;5037805;28;20074;-67
2023/06/09 01:35:14;;;;;;;1.90;1.45;;;25.60;46.70;;;;;;5039308;28;20408;-67
2023/06/09 01:37:41;;;;;;;1.80;1.40;;;25.60;46.70;;;;;;5038360;28;20083;-67
2023/06/09 01:40:08;;;;;;;1.98;1.50;;;25.60;46.70;;;;;;5035444;28;20758;-67
2023/06/09 01:42:34;;;;;;;2.05;1.50;;;25.60;46.70;;;;;;5037403;28;20029;-67
2023/06/09 01:45:00;;;;;;;1.95;1.40;;;25.60;46.70;;;;;;5036452;28;20496;-67
2023/06/09 01:47:26;;;;;;;1.88;1.50;;;25.60;46.70;;;;;;5033964;28;20026;-67
2023/06/09 01:50:02;;;;;;;2.03;1.48;;;25.60;46.80;;;;;;5036223;28;20035;-67
2023/06/09 01:52:47;;;;;;;2.53;1.45;;;25.50;46.70;;;;;;5037770;28;20466;-67
2023/06/09 01:55:32;;;;;;;1.90;1.48;;;25.60;46.80;;;;;;5037739;28;20029;-67
2023/06/09 01:58:06;;;;;;;1.80;1.30;;;25.50;46.70;;;;;;5039086;28;20125;-67
2023/06/09 02:00:33;;;;;;;2.15;1.50;;;25.50;46.70;;;;;;5031411;28;20025;-67
2023/06/09 02:03:00;;;;;;;2.25;1.50;;;25.50;46.70;;;;;;5038496;28;20026;-67
2023/06/09 02:05:28;;;;;;;2.03;1.50;;;25.50;46.70;;;;;;5005654;28;20033;-67
2023/06/09 02:07:55;;;;;;;2.67;1.60;;;25.50;46.70;;;;;;5034469;28;20032;-67
2023/06/09 02:10:21;;;;;;;1.95;1.40;;;25.50;46.70;;;;;;5037000;28;20427;-67
2023/06/09 02:12:47;;;;;;;1.73;1.33;;;25.50;46.70;;;;;;5022979;28;20037;-67
2023/06/09 02:15:13;;;;;;;1.73;1.40;;;25.50;46.80;;;;;;5036612;28;20040;-67
2023/06/09 02:17:42;;;;;;;1.50;1.30;;;25.50;46.70;;;;;;5038067;28;20031;-67
2023/06/09 02:20:09;;;;;;;2.03;1.60;;;25.50;46.70;;;;;;5042681;28;20032;-67
2023/06/09 02:22:35;;;;;;;1.80;1.40;;;25.50;46.70;;;;;;5037837;28;20457;-67
2023/06/09 02:25:03;;;;;;;2.58;1.40;;;25.50;46.70;;;;;;5035449;28;20060;-67
2023/06/09 02:27:28;;;;;;;2.10;1.50;;;25.50;46.80;;;;;;5033994;28;20022;-67
2023/06/09 02:29:54;;;;;;;2.00;1.45;;;25.50;46.80;;;;;;5004182;28;20380;-67
2023/06/09 02:32:20;;;;;;;2.00;1.38;;;25.40;46.70;;;;;;5034482;28;20326;-67
2023/06/09 02:34:46;;;;;;;1.77;1.40;;;25.40;46.70;;;;;;5018947;28;20025;-67
2023/06/09 02:37:11;;;;;;;1.90;1.50;;;25.40;46.70;;;;;;5034681;28;20466;-67
2023/06/09 02:39:37;;;;;;;1.70;1.40;;;25.40;46.70;;;;;;5032988;28;20033;-67
2023/06/09 02:42:03;;;;;;;1.85;1.30;;;25.40;46.70;;;;;;5035024;28;20144;-67
2023/06/09 02:44:31;;;;;;;1.58;1.20;;;25.40;46.70;;;;;;5036330;28;20037;-67
2023/06/09 02:46:58;;;;;;;1.80;1.40;;;25.40;46.70;;;;;;5035567;28;20469;-67
2023/06/09 02:49:24;;;;;;;1.77;1.30;;;25.40;46.70;;;;;;5018399;28;20483;-67
2023/06/09 02:51:49;;;;;;;1.80;1.40;;;25.40;46.70;;;;;;5035431;28;20021;-67
2023/06/09 02:54:15;;;;;;;2.03;1.40;;;25.40;46.70;;;;;;5033288;28;20030;-67
2023/06/09 02:56:41;;;;;;;2.03;1.40;;;25.40;46.70;;;;;;5032351;28;20422;-67
2023/06/09 02:59:07;;;;;;;1.58;1.25;;;25.40;46.70;;;;;;5035928;28;20019;-67
2023/06/09 03:01:34;;;;;;;1.80;1.27;;;25.40;46.80;;;;;;5038255;28;20053;-67
2023/06/09 03:04:07;;;;;;;1.52;1.20;;;25.40;46.80;;;;;;5033211;28;20387;-67
2023/06/09 03:06:37;;;;;;;1.70;1.35;;;25.40;46.70;;;;;;5032845;28;20037;-67
2023/06/09 03:09:03;;;;;;;1.83;1.45;;;25.40;46.70;;;;;;5018038;28;20029;-67
2023/06/09 03:11:32;;;;;;;1.60;1.30;;;25.30;46.70;;;;;;5035471;28;20029;-67
2023/06/09 03:13:57;;;;;;;2.05;1.50;;;25.40;46.80;;;;;;5003051;28;20489;-67
2023/06/09 03:16:23;;;;;;;1.70;1.30;;;25.40;46.70;;;;;;5035510;28;20029;-67
2023/06/09 03:18:49;;;;;;;1.63;1.33;;;25.40;46.80;;;;;;5033037;28;20282;-68
2023/06/09 03:21:15;;;;;;;2.10;1.52;;;25.40;46.80;;;;;;5034765;28;20047;-67
2023/06/09 03:23:41;;;;;;;1.90;1.30;;;25.30;46.70;;;;;;5032405;28;20384;-67
2023/06/09 03:26:07;;;;;;;2.05;1.40;;;25.30;46.70;;;;;;5017656;28;20025;-68
2023/06/09 03:28:33;;;;;;;1.85;1.40;;;25.30;46.70;;;;;;5019829;28;20037;-67
2023/06/09 03:30:59;;;;;;;1.70;1.25;;;25.30;46.70;;;;;;5034467;28;20029;-67
2023/06/09 03:33:25;;;;;;;1.58;1.30;;;25.30;46.70;;;;;;5018962;28;20030;-67
2023/06/09 03:35:51;;;;;;;1.40;1.20;;;25.30;46.70;;;;;;5036531;28;20044;-67
2023/06/09 03:38:20;;;;;;;1.80;1.40;;;25.30;47.30;;;;;;5031746;28;20026;-67
2023/06/09 03:40:45;;;;;;;1.45;1.23;;;25.30;46.70;;;;;;5033069;28;20037;-67
2023/06/09 03:43:11;;;;;;;2.17;1.45;;;25.30;46.70;;;;;;5036590;28;20044;-66
2023/06/09 03:45:37;;;;;;;1.95;1.35;;;25.30;46.70;;;;;;5036207;28;20037;-67
2023/06/09 03:48:05;;;;;;;1.75;1.30;;;25.30;46.70;;;;;;5035820;28;20419;-68
2023/06/09 03:50:31;;;;;;;1.80;1.30;;;25.30;46.70;;;;;;5036419;28;20480;-67
2023/06/09 03:52:56;;;;;;;1.92;1.20;;;25.30;46.70;;;;;;5033177;28;20034;-67
2023/06/09 03:55:24;;;;;;;1.77;1.30;;;25.30;46.70;;;;;;5034144;28;20477;-68
2023/06/09 03:57:50;;;;;;;1.90;1.30;;;25.30;46.70;;;;;;5034708;28;20021;-68
2023/06/09 04:00:16;;;;;;;1.55;1.20;;;25.30;46.70;;;;;;5028228;28;20161;-68
2023/06/09 04:02:42;;;;;;;1.70;1.20;;;25.20;46.60;;;;;;5035662;28;20109;-67
2023/06/09 04:05:08;;;;;;;1.50;1.23;;;25.20;46.70;;;;;;5036358;28;20488;-67
2023/06/09 04:07:33;;;;;;;1.92;1.40;;;25.20;46.60;;;;;;5037468;28;20093;-68
2023/06/09 04:09:59;;;;;;;2.05;1.45;;;25.20;46.70;;;;;;5034078;28;20396;-67
2023/06/09 04:12:25;;;;;;;1.60;1.27;;;25.20;46.70;;;;;;5016484;28;20064;-67
2023/06/09 04:14:51;;;;;;;1.70;1.30;;;25.20;46.70;;;;;;5035935;28;20036;-67
2023/06/09 04:17:16;;;;;;;1.92;1.30;;;25.20;46.70;;;;;;5021730;28;20024;-67
2023/06/09 04:19:42;;;;;;;1.88;1.40;;;25.20;46.70;;;;;;5019021;28;20115;-67
2023/06/09 04:22:10;;;;;;;1.48;1.05;;;25.20;46.70;;;;;;5034517;28;20089;-68
2023/06/09 04:24:36;;;;;;;1.52;1.20;;;25.20;46.70;;;;;;5037261;28;20025;-67
2023/06/09 04:27:03;;;;;;;2.05;1.40;;;25.20;46.70;;;;;;5039688;28;20119;-67
2023/06/09 04:29:32;;;;;;;1.80;1.30;;;25.20;46.70;;;;;;5036207;28;20025;-67
2023/06/09 04:32:02;;;;;;;;;;;25.20;46.70;;;;;;5023586;28;20021;-67
2023/06/09 04:34:28;;;;;;;1.73;1.30;;;25.20;46.70;;;;;;5037324;28;19913;-68
2023/06/09 04:36:55;;;;;;;1.63;1.30;;;25.10;46.60;;;;;;5040484;28;20087;-67
2023/06/09 04:39:28;;;;;;;1.58;1.30;;;25.10;46.60;;;;;;5040029;28;20022;-67
2023/06/09 04:41:54;;;;;;;1.40;1.20;;;25.10;47.20;;;;;;5038576;28;20049;-67
2023/06/09 04:44:20;;;;;;;1.95;1.40;;;25.10;46.60;;;;;;5039263;28;20108;-67
2023/06/09 04:46:46;;;;;;;1.77;1.40;;;25.20;46.70;;;;;;5035128;28;20468;-67
2023/06/09 04:49:12;;;;;;;2.00;1.40;;;25.10;46.60;;;;;;5037497;28;20104;-67
2023/06/09 04:51:48;;;;;;;1.60;1.20;;;25.10;46.70;;;;;;5040697;28;20564;-67
2023/06/09 04:54:20;;;;;;;1.30;1.10;;;25.10;46.60;;;;;;5018292;28;20053;-67
2023/06/09 04:56:52;;;;;;;1.90;1.30;;;25.10;46.70;;;;;;5037285;28;20509;-67
2023/06/09 04:59:21;;;;;;;1.60;1.20;;;25.10;46.70;;;;;;5021704;28;20033;-67
2023/06/09 05:01:47;;;;;;;1.67;1.40;;;25.10;46.70;;;;;;5005500;28;20456;-68
2023/06/09 05:04:13;;;;;;;1.88;1.30;;;25.10;46.70;;;;;;5036649;28;20033;-67
2023/06/09 05:06:39;;;;;;;1.30;1.10;;;25.10;46.70;;;;;;5035790;28;20022;-67
2023/06/09 05:09:06;;;;;;;1.40;1.20;;;25.10;46.70;;;;;;5039069;28;20061;-67
2023/06/09 05:11:32;;;;;;;1.60;1.25;;;25.10;46.70;;;;;;5032013;28;20711;-67
2023/06/09 05:13:58;;;;;;;1.50;1.13;;;25.10;46.70;;;;;;5020938;28;20025;-67
2023/06/09 05:16:27;;;;;;;1.52;1.20;;;25.10;46.70;;;;;;5034332;28;20097;-67
2023/06/09 05:18:52;;;;;;;1.85;1.40;;;25.10;46.70;;;;;;5037041;28;20531;-67
2023/06/09 05:21:18;;;;;;;1.70;1.40;;;25.10;46.70;;;;;;5035000;28;20030;-67
2023/06/09 05:23:44;;;;;;;1.60;1.40;;;25.10;46.70;;;;;;5019728;28;20053;-67
2023/06/09 05:26:10;;;;;;;1.92;1.50;;;25.10;46.80;;;;;;5018658;28;20056;-67
2023/06/09 05:28:36;;;;;;;1.58;1.20;;;25.10;46.70;;;;;;5037636;28;20029;-68
2023/06/09 05:31:02;;;;;;;1.80;1.30;;;25.00;46.70;;;;;;5036902;28;20026;-67
2023/06/09 05:33:28;;;;;;;1.63;1.23;;;25.10;46.80;;;;;;5038504;28;20478;-67
2023/06/09 05:35:53;;;;;;;1.67;1.30;;;25.00;46.70;;;;;;5035775;28;20049;-67
2023/06/09 05:38:23;;;;;;;2.10;1.33;;;25.10;46.80;;;;;;5021836;28;20029;-67
2023/06/09 05:40:48;;;;;;;1.20;1.10;;;25.00;46.70;;;;;;5034677;28;20493;-67
2023/06/09 05:43:14;;;;;;;1.70;1.33;;;25.00;46.70;;;;;;5032861;28;20033;-67
2023/06/09 05:45:40;;;;;;;1.52;1.20;;;25.00;46.70;;;;;;5038495;28;20381;-67
2023/06/09 05:48:06;;;;;;;1.75;1.40;;;25.00;46.70;;;;;;5034934;28;20202;-67
2023/06/09 05:50:31;;;;;;;1.80;1.40;;;25.00;46.70;;;;;;5035218;28;20037;-67
2023/06/09 05:52:57;;;;;;;1.75;1.40;;;25.00;46.80;;;;;;5040161;28;20036;-67
2023/06/09 05:55:23;;;;;;;1.88;1.30;;;25.00;46.80;;;;;;5036305;28;20194;-67
2023/06/09 05:57:48;;;;;;;1.67;1.30;;;25.00;46.80;;;;;;5035154;28;20123;-67
2023/06/09 06:00:15;;;;;;;1.42;1.13;;;25.00;46.80;;;;;;5022301;28;20032;-65
2023/06/09 06:02:42;;;;;;;1.50;1.17;;;25.00;46.80;;;;;;5021730;28;20526;-65
2023/06/09 06:05:09;;;;;;;1.90;1.50;;;25.00;46.80;;;;;;5033739;28;20473;-66
2023/06/09 06:07:36;;;;;;;1.90;1.30;;;25.00;46.80;;;;;;5020514;28;20464;-65
2023/06/09 06:10:03;;;;;;;1.80;1.35;;;25.00;46.80;;;;;;5035596;28;20469;-66
2023/06/09 06:12:30;;;;;;;1.80;1.33;;;24.90;46.80;;;;;;5037655;28;20021;-65
2023/06/09 06:14:55;;;;;;;1.50;1.20;;;25.00;46.80;;;;;;5036494;28;20363;-65
2023/06/09 06:17:21;;;;;;;1.40;1.20;;;25.00;46.80;;;;;;5035533;28;20025;-65
2023/06/09 06:19:47;;;;;;;1.23;1.02;;;25.00;46.80;;;;;;5035589;28;20036;-65
2023/06/09 06:22:12;;;;;;;1.50;1.10;;;24.90;46.80;;;;;;5021510;28;20119;-65
2023/06/09 06:24:38;;;;;;;1.58;1.20;;;25.00;46.80;;;;;;5036290;28;20481;-65
2023/06/09 06:27:04;;;;;;;1.52;1.27;;;24.90;46.80;;;;;;5035953;28;20103;-66
2023/06/09 06:29:30;;;;;;;1.98;1.30;;;24.90;46.80;;;;;;5034769;28;20026;-65
2023/06/09 06:31:56;;;;;;;1.65;1.20;;;24.90;46.80;;;;;;5034703;28;20021;-65
2023/06/09 06:34:22;;;;;;;1.40;1.20;;;24.90;46.80;;;;;;5004457;28;20452;-65
2023/06/09 06:36:47;;;;;;;2.10;1.50;;;24.90;46.80;;;;;;5038162;28;20091;-65
2023/06/09 06:39:13;;;;;;;1.77;1.20;;;25.00;46.80;;;;;;5037199;28;20033;-65
2023/06/09 06:41:39;;;;;;;1.75;1.30;;;25.00;46.80;;;;;;5039017;28;20033;-66
2023/06/09 06:44:05;;;;;;;2.00;1.50;;;24.90;46.80;;;;;;5034625;28;20040;-65
2023/06/09 06:46:31;;;;;;;2.13;1.40;;;24.90;46.80;;;;;;5034209;28;20116;-65
2023/06/09 06:48:57;;;;;;;1.92;1.48;;;24.90;46.90;;;;;;5035028;28;20117;-65
2023/06/09 06:51:23;;;;;;;1.70;1.33;;;24.90;46.90;;;;;;5034403;28;20043;-65
2023/06/09 06:53:48;;;;;;;1.60;1.30;;;24.90;46.90;;;;;;5017489;28;20064;-65
2023/06/09 06:56:14;;;;;;;1.90;1.40;;;24.90;46.90;;;;;;5030625;28;20108;-65
2023/06/09 06:58:40;;;;;;;1.63;1.30;;;24.90;47.00;;;;;;5017897;28;20033;-65
2023/06/09 07:01:06;;;;;;;2.03;1.50;;;24.90;47.00;;;;;;5018411;28;20075;-65
2023/06/09 07:03:33;;;;;;;1.67;1.30;;;24.90;47.50;;;;;;5031938;28;20052;-65
2023/06/09 07:05:58;;;;;;;1.60;1.38;;;24.90;47.00;;;;;;5038332;28;20430;-65
2023/06/09 07:08:24;;;;;;;2.17;1.50;;;24.90;47.00;;;;;;5034679;28;20383;-66
2023/06/09 07:10:50;;;;;;;2.05;1.50;;;24.90;47.00;;;;;;5033850;28;20029;-65
2023/06/09 07:13:16;;;;;;;1.90;1.55;;;24.90;47.00;;;;;;5036609;28;20026;-66
2023/06/09 07:15:42;;;;;;;1.83;1.38;;;24.90;47.10;;;;;;5032810;28;20458;-65
2023/06/09 07:18:07;;;;;;;1.95;1.40;;;24.90;47.20;;;;;;5034160;28;20112;-65
2023/06/09 07:20:33;;;;;;;1.80;1.38;;;24.90;47.10;;;;;;5037246;28;20103;-65
2023/06/09 07:22:59;;;;;;;1.85;1.50;;;24.90;47.10;;;;;;5015063;28;20026;-65
2023/06/09 07:25:25;;;;;;;1.70;1.30;;;24.90;47.10;;;;;;5017234;28;20032;-65
2023/06/09 07:27:51;;;;;;;2.08;1.50;;;24.80;47.00;;;;;;5036372;28;20120;-66
2023/06/09 07:30:17;;;;;;;2.25;1.50;;;24.80;47.10;;;;;;5018408;28;20113;-65
2023/06/09 07:32:43;;;;;;;1.77;1.42;;;24.90;47.10;;;;;;5037700;28;20025;-65
2023/06/09 07:35:13;;;;;;;2.00;1.40;;;24.80;47.10;;;;;;5002645;28;20017;-65
2023/06/09 07:37:40;;;;;;;1.95;1.60;;;24.80;47.10;;;;;;5036233;28;20017;-65
2023/06/09 07:40:07;;;;;;;1.88;1.48;;;24.80;47.10;;;;;;5036062;28;20384;-65
2023/06/09 07:42:34;;;;;;;2.22;1.50;;;24.80;47.20;;;;;;5030345;28;20442;-65
2023/06/09 07:44:59;;;;;;;1.92;1.50;;;24.80;47.20;;;;;;5027819;28;20404;-65
2023/06/09 07:47:25;;;;;;;1.98;1.50;;;24.90;47.30;;;;;;5030823;28;20029;-65
2023/06/09 07:49:51;;;;;;;1.83;1.40;;;24.90;47.30;;;;;;5036253;28;20108;-65
2023/06/09 07:52:16;;;;;;;2.70;1.50;;;24.90;47.30;;;;;;5019865;28;20366;-65
2023/06/09 07:54:42;;;;;;;2.38;1.52;;;24.90;47.90;;;;;;5035063;28;20138;-65
2023/06/09 07:57:07;;;;;;;1.80;1.35;;;24.90;47.30;;;;;;5034364;28;20036;-66
2023/06/09 07:59:33;;;;;;;1.92;1.50;;;24.90;47.30;;;;;;5038315;28;20549;-65
2023/06/09 08:01:58;;;;;;;2.10;1.60;;;24.80;47.30;;;;;;5033518;28;20499;-67
2023/06/09 08:04:26;;;;;;;2.05;1.45;;;24.80;47.40;;;;;;5035981;28;20052;-67
2023/06/09 08:06:51;;;;;;;2.17;1.70;;;24.90;47.50;;;;;;5031455;28;20516;-67
2023/06/09 08:09:17;;;;;;;2.00;1.50;;;24.90;47.40;;;;;;5037175;28;20025;-68
2023/06/09 08:11:43;;;;;;;2.15;1.60;;;24.80;47.40;;;;;;5035022;28;20724;-67
2023/06/09 08:14:08;;;;;;;2.22;1.60;;;24.90;47.50;;;;;;5019066;28;20202;-67
2023/06/09 08:16:35;;;;;;;1.50;1.27;;;24.90;47.40;;;;;;5036821;28;20032;-67
2023/06/09 08:19:01;;;;;;;2.05;1.60;;;24.90;47.40;;;;;;5036719;28;20100;-67
2023/06/09 08:21:26;;;;;;;2.38;1.60;;;24.80;47.40;;;;;;5035839;28;20112;-67
2023/06/09 08:23:52;;;;;;;2.00;1.50;;;24.90;47.40;;;;;;5035032;28;20108;-67
2023/06/09 08:26:18;;;;;;;2.08;1.50;;;24.90;47.40;;;;;;5032546;28;20028;-67
2023/06/09 08:28:43;;;;;;;2.40;1.70;;;24.80;47.40;;;;;;5032262;28;20037;-67
2023/06/09 08:31:09;;;;;;;2.20;1.70;;;24.90;47.50;;;;;;5035109;28;20025;-67
2023/06/09 08:33:36;;;;;;;2.20;1.60;;;24.80;47.40;;;;;;5033286;28;20124;-67
2023/06/09 08:36:05;;;;;;;2.00;1.40;;;24.80;47.40;;;;;;5032294;28;20032;-67
2023/06/09 08:38:35;;;;;;;1.92;1.42;;;24.80;47.40;;;;;;5032384;28;20549;-68
2023/06/09 08:41:08;;;;;;;1.95;1.42;;;24.90;47.50;;;;;;5034153;28;20488;-67
2023/06/09 08:43:34;;;;;;;2.00;1.52;;;24.80;47.50;;;;;;5034953;28;20112;-67
2023/06/09 08:46:02;;;;;;;2.17;1.45;;;24.80;47.50;;;;;;5017964;28;20132;-67
2023/06/09 08:48:30;;;;;;;1.98;1.42;;;24.80;47.50;;;;;;5033494;28;20025;-68
2023/06/09 08:50:57;;;;;;;1.90;1.60;;;24.80;47.50;;;;;;5033572;28;20465;-67
2023/06/09 08:53:27;;;;;;;2.60;1.60;;;24.80;47.50;;;;;;5034214;28;20052;-67
2023/06/09 08:55:53;;;;;;;1.90;1.52;;;24.80;47.50;;;;;;5033936;28;20021;-67
2023/06/09 08:58:21;;;;;;;2.20;1.63;;;24.80;47.50;;;;;;5015511;28;20072;-67
2023/06/09 09:00:49;;;;;;;2.20;1.50;;;24.80;47.40;;;;;;5033039;28;20032;-67
2023/06/09 09:03:16;;;;;;;2.10;1.58;;;24.80;47.40;;;;;;5035927;28;20497;-67
2023/06/09 09:05:42;;;;;;;2.10;1.50;;;24.80;47.40;;;;;;5034122;28;20026;-67
2023/06/09 09:08:08;;;;;;;1.90;1.40;;;24.80;47.50;;;;;;5038762;28;20542;-67
2023/06/09 09:10:34;;;;;;;1.80;1.42;;;24.80;47.50;;;;;;5020184;28;20037;-67
2023/06/09 09:13:00;;;;;;;1.73;1.40;;;24.80;47.50;;;;;;5037916;28;20025;-65
2023/06/09 09:15:25;;;;;;;1.88;1.40;;;24.80;47.50;;;;;;5035318;28;20033;-67
2023/06/09 09:17:51;;;;;;;2.42;1.45;;;24.80;47.50;;;;;;5035891;28;20064;-67
2023/06/09 09:20:17;;;;;;;2.13;1.50;;;24.80;47.50;;;;;;5033264;28;20033;-67
2023/06/09 09:22:47;;;;;;;1.77;1.40;;;24.80;47.50;;;;;;5037451;28;20203;-67
2023/06/09 09:25:31;;;;;;;1.75;1.40;;;24.80;47.50;;;;;;5022456;28;20039;-67
2023/06/09 09:28:01;;;;;;;2.00;1.50;;;24.80;47.50;;;;;;5036501;28;20103;-67
2023/06/09 09:30:45;;;;;;;1.77;1.30;;;24.80;47.50;;;;;;5039111;28;20453;-67
2023/06/09 09:33:13;;;;;;;1.85;1.42;;;24.80;47.50;;;;;;5037508;28;20567;-67
2023/06/09 09:35:39;;;;;;;1.95;1.40;;;24.80;47.50;;;;;;5034342;28;20025;-67
2023/06/09 09:38:16;;;;;;;1.90;1.60;;;24.80;47.50;;;;;;5037988;28;20338;-67
2023/06/09 09:40:47;;;;;;;1.85;1.45;;;24.80;47.60;;;;;;5034905;28;20450;-66
2023/06/09 09:43:13;;;;;;;1.83;1.38;;;24.80;47.50;;;;;;5035771;28;20508;-67
2023/06/09 09:45:44;;;;;;;1.90;1.45;;;24.80;47.50;;;;;;5018215;28;20044;-67
2023/06/09 09:48:12;;;;;;;1.92;1.48;;;24.80;47.50;;;;;;5034324;28;20028;-67
2023/06/09 09:50:39;;;;;;;2.10;1.42;;;24.80;47.50;;;;;;5036293;28;20025;-66
2023/06/09 09:53:05;;;;;;;1.80;1.40;;;24.80;47.60;;;;;;5034618;28;20092;-67
2023/06/09 09:55:35;;;;;;;2.05;1.45;;;24.80;47.60;;;;;;5039361;28;20556;-67
2023/06/09 09:58:05;;;;;;;2.25;1.38;;;24.90;47.60;;;;;;5034832;28;20025;-67
2023/06/09 10:00:33;;;;;;;1.80;1.30;;;24.80;47.50;;;;;;5037021;28;20022;-67
2023/06/09 10:03:00;;;;;;;1.98;1.40;;;24.80;47.60;;;;;;5038855;28;20021;-68
2023/06/09 10:05:30;;;;;;;1.85;1.42;;;24.90;47.60;;;;;;5037082;28;20056;-67
2023/06/09 10:07:57;;;;;;;1.92;1.40;;;24.90;47.60;;;;;;5036150;28;20109;-67
2023/06/09 10:10:25;;;;;;;2.10;1.40;;;24.80;47.50;;;;;;5036101;28;20036;-67
2023/06/09 10:12:52;;;;;;;2.60;1.77;;;24.80;47.50;;;;;;5031998;28;20426;-67
2023/06/09 10:15:20;;;;;;;2.28;1.60;;;24.80;47.60;;;;;;5035391;28;20026;-67
2023/06/09 10:17:48;;;;;;;2.20;1.60;;;24.90;47.60;;;;;;5020030;28;20128;-67
2023/06/09 10:20:14;;;;;;;1.92;1.40;;;24.80;47.60;;;;;;5036450;28;20036;-67
2023/06/09 10:22:41;;;;;;;1.77;1.40;;;24.90;47.60;;;;;;5035698;28;20491;-67
2023/06/09 10:25:08;;;;;;;2.50;1.52;;;24.90;47.60;;;;;;5018886;28;20489;-67
2023/06/09 10:27:34;;;;;;;1.70;1.30;;;24.90;47.60;;;;;;5035206;28;20025;-67
2023/06/09 10:30:01;;;;;;;1.83;1.40;;;24.90;47.50;;;;;;5035256;28;20029;-67
2023/06/09 10:32:31;;;;;;;2.45;1.50;;;24.90;47.60;;;;;;5036859;28;20479;-67
2023/06/09 10:34:59;;;;;;;2.00;1.33;;;24.90;47.60;;;;;;5035602;28;20032;-67
2023/06/09 10:37:27;;;;;;;1.83;1.38;;;24.90;47.50;;;;;;5036035;28;20361;-67
2023/06/09 10:40:18;;;;;;;2.00;1.50;;;24.80;47.50;;;;;;5016071;28;20025;-67
2023/06/09 10:42:46;;;;;;;2.05;1.50;;;24.90;47.50;;;;;;5035366;28;20103;-67
2023/06/09 10:45:13;;;;;;;1.70;1.38;;;24.90;47.50;;;;;;5034624;28;20511;-67
2023/06/09 10:47:43;;;;;;;1.92;1.40;;;24.90;47.50;;;;;;5036584;28;20029;-67
2023/06/09 10:50:32;;;;;;;1.70;1.35;;;24.90;47.50;;;;;;5035952;28;20488;-67
2023/06/09 10:53:01;;;;;;;2.08;1.50;;;24.90;47.50;;;;;;5037392;28;20033;-67
2023/06/09 10:55:28;;;;;;;1.73;1.33;;;24.90;47.50;;;;;;5035839;28;20026;-67
2023/06/09 10:57:55;;;;;;;1.80;1.40;;;24.90;47.60;;;;;;5032391;28;20089;-67
2023/06/09 11:00:22;;;;;;;1.75;1.48;;;24.90;47.60;;;;;;5012599;28;20481;-66
2023/06/09 11:03:12;;;;;;;1.67;1.30;;;24.90;47.60;;;;;;5019382;28;20025;-66
2023/06/09 11:05:43;;;;;;;2.55;1.58;;;24.90;47.60;;;;;;5033253;28;20427;-66
2023/06/09 11:08:08;;;;;;;2.10;1.58;;;24.90;47.60;;;;;;5032683;28;20083;-66
2023/06/09 11:10:36;;;;;;;1.77;1.33;;;24.90;47.60;;;;;;5017934;28;20060;-66
2023/06/09 11:13:03;;;;;;;1.80;1.40;;;24.90;47.60;;;;;;5035259;28;20064;-66
2023/06/09 11:16:00;;;;;;;1.95;1.60;;;24.90;47.60;;;;;;5033998;28;20017;-67
2023/06/09 11:18:27;;;;;;;2.13;1.60;;;24.90;47.60;;;;;;5032635;28;20024;-66
2023/06/09 11:21:20;;;;;;;1.75;1.48;;;24.90;47.60;;;;;;5035480;28;20040;-67
2023/06/09 11:24:00;;;;;;;2.00;1.40;;;24.90;47.60;;;;;;5029149;28;20040;-67
2023/06/09 11:26:26;;;;;;;1.50;1.30;;;24.90;47.60;;;;;;5036240;28;20488;-67
2023/06/09 11:28:52;;;;;;;1.50;1.15;;;24.90;47.70;;;;;;5035276;28;20132;-67
2023/06/09 11:31:18;;;;;;;1.83;1.50;;;24.90;47.60;;;;;;5036042;28;20047;-66
2023/06/09 11:33:46;;;;;;;1.60;1.30;;;24.90;47.60;;;;;;5035065;28;20481;-66
2023/06/09 11:36:23;;;;;;;2.00;1.50;;;24.90;47.60;;;;;;5017497;28;20113;-67
2023/06/09 11:38:50;;;;;;;1.90;1.40;;;24.90;47.60;;;;;;5034565;28;20485;-67
2023/06/09 11:41:21;;;;;;;1.88;1.35;;;24.90;47.60;;;;;;5015172;28;20030;-66
2023/06/09 11:43:51;;;;;;;1.67;1.30;;;24.90;47.50;;;;;;5035707;28;20033;-67
2023/06/09 11:46:18;;;;;;;1.83;1.33;;;24.90;47.50;;;;;;5018634;28;20036;-66
2023/06/09 11:48:57;;;;;;;1.80;1.40;;;24.90;47.50;;;;;;5017291;28;20409;-67
2023/06/09 11:51:22;;;;;;;2.38;1.70;;;24.90;47.50;;;;;;5038708;28;20108;-67
2023/06/09 11:53:48;;;;;;;2.05;1.50;;;25.00;47.50;;;;;;5020379;28;20482;-67
2023/06/09 11:56:14;;;;;;;2.03;1.52;;;24.90;47.50;;;;;;5032645;28;20026;-67
2023/06/09 11:58:40;;;;;;;2.38;1.65;;;24.90;47.40;;;;;;5035421;28;20520;-67
2023/06/09 12:01:06;;;;;;;2.13;1.33;;;25.00;47.40;;;;;;5033519;28;20037;-67
2023/06/09 12:03:36;;;;;;;2.10;1.60;;;25.00;47.40;;;;;;5037845;28;20119;-66
2023/06/09 12:06:02;;;;;;;2.10;1.50;;;24.90;47.40;;;;;;5031113;28;20021;-67
2023/06/09 12:08:28;;;;;;;1.90;1.50;;;24.90;47.30;;;;;;5037687;28;20037;-66
2023/06/09 12:10:53;;;;;;;1.90;1.35;;;24.90;47.30;;;;;;5035494;28;20037;-67
2023/06/09 12:13:19;;;;;;;1.90;1.48;;;24.90;47.40;;;;;;5017287;28;20493;-67
2023/06/09 12:15:52;;;;;;;2.70;1.38;;;24.90;47.30;;;;;;5034407;28;20025;-67
2023/06/09 12:18:17;;;;;;;2.08;1.60;;;24.90;47.30;;;;;;5033732;28;20029;-67
2023/06/09 12:20:46;;;;;;;1.83;1.55;;;24.90;47.30;;;;;;5031716;28;20092;-67
2023/06/09 12:23:14;;;;;;;1.85;1.42;;;25.00;47.40;;;;;;5017528;28;20047;-66
2023/06/09 12:25:42;;;;;;;1.70;1.40;;;24.90;47.30;;;;;;5035071;28;20029;-67
2023/06/09 12:28:23;;;;;;;2.03;1.50;;;24.90;47.30;;;;;;5000308;28;20049;-67
2023/06/09 12:31:15;;;;;;;2.80;1.48;;;24.90;47.30;;;;;;5018657;28;20021;-67
2023/06/09 12:33:49;;;;;;;2.00;1.42;;;24.90;47.30;;;;;;5031229;28;20425;-66
2023/06/09 12:36:15;;;;;;;2.15;1.60;;;24.90;47.30;;;;;;5034161;28;20495;-66
2023/06/09 12:38:45;;;;;;;1.73;1.50;;;24.90;47.30;;;;;;5034394;28;20018;-67
2023/06/09 12:41:13;;;;;;;2.35;1.73;;;25.00;47.30;;;;;;5036789;28;20040;-67
2023/06/09 12:43:50;;;;;;;2.45;1.67;;;24.90;47.30;;;;;;5034271;28;20496;-67
2023/06/09 12:46:26;;;;;;;1.73;1.40;;;25.00;47.30;;;;;;5035254;28;20041;-66
2023/06/09 12:48:55;;;;;;;2.70;1.70;;;24.90;47.30;;;;;;5036303;28;20031;-66
2023/06/09 12:51:21;;;;;;;2.53;1.70;;;24.90;47.30;;;;;;5036296;28;20508;-68